createdAt,value
2023-04-02T00:00:37.315Z,18.35
2023-04-02T00:03:10.849Z,19.48
2023-04-02T00:05:54.751Z,17.38
2023-04-02T00:08:39.002Z,31.08
2023-04-02T00:11:09.911Z,17.25
2023-04-02T00:13:41.301Z,22.23
2023-04-02T00:18:47.154Z,16.80
2023-04-02T00:21:21.504Z,18.98
2023-04-02T00:23:49.107Z,21.55
2023-04-02T00:26:31.259Z,13.93
2023-04-02T00:29:02.557Z,18.75
2023-04-02T00:31:29.882Z,21.55
2023-04-02T00:33:58.536Z,25.98
2023-04-02T00:36:30.243Z,34.08
2023-04-02T00:38:59.733Z,19.83
2023-04-02T00:41:31.098Z,26.10
2023-04-02T00:43:59.835Z,24.27
2023-04-02T00:46:46.905Z,18.77
2023-04-02T00:49:40.659Z,23.98
2023-04-02T00:52:14.442Z,20.40
2023-04-02T00:55:12.412Z,21.67
2023-04-02T00:57:42.711Z,21.73
2023-04-02T01:00:24.496Z,21.10
2023-04-02T01:03:19.576Z,28.00
2023-04-02T01:06:03.001Z,19.42
2023-04-02T01:08:39.081Z,20.50
2023-04-02T01:11:11.705Z,19.67
2023-04-02T01:13:58.848Z,17.20
2023-04-02T01:16:32.286Z,21.75
2023-04-02T01:19:09.154Z,18.40
2023-04-02T01:22:02.497Z,18.92
2023-04-02T01:24:34.933Z,20.10
2023-04-02T01:27:05.550Z,17.42
2023-04-02T01:29:39.970Z,20.55
2023-04-02T01:32:10.759Z,14.98
2023-04-02T01:34:38.764Z,20.33
2023-04-02T01:37:45.148Z,17.40
2023-04-02T01:40:43.919Z,14.68
2023-04-02T01:43:23.973Z,14.50
2023-04-02T01:45:51.122Z,16.00
2023-04-02T01:48:24.642Z,18.77
2023-04-02T01:50:55.205Z,17.35
2023-04-02T01:53:25.210Z,12.90
2023-04-02T01:55:58.052Z,14.10
2023-04-02T01:58:31.785Z,21.35
2023-04-02T02:01:09.537Z,15.88
2023-04-02T02:03:43.708Z,16.50
2023-04-02T02:06:16.145Z,18.75
2023-04-02T02:09:07.601Z,18.85
2023-04-02T02:11:36.685Z,15.68
2023-04-02T02:14:15.603Z,18.02
2023-04-02T02:16:43.045Z,16.40
2023-04-02T02:19:35.437Z,14.98
2023-04-02T02:22:32.753Z,19.00
2023-04-02T02:25:03.571Z,18.55
2023-04-02T02:27:30.726Z,20.73
2023-04-02T02:30:04.402Z,18.15
2023-04-02T02:32:33.195Z,15.73
2023-04-02T02:35:43.386Z,15.40
2023-04-02T02:38:37.247Z,14.73
2023-04-02T02:41:13.489Z,12.70
2023-04-02T02:43:44.413Z,11.52
2023-04-02T02:46:17.076Z,18.65
2023-04-02T02:48:44.709Z,11.25
2023-04-02T02:51:23.266Z,11.60
2023-04-02T02:53:54.678Z,11.60
2023-04-02T02:58:53.554Z,10.30
2023-04-02T03:01:21.161Z,14.00
2023-04-02T03:03:49.341Z,14.52
2023-04-02T03:06:20.910Z,12.30
2023-04-02T03:11:24.977Z,9.98
2023-04-02T03:13:55.971Z,12.63
2023-04-02T03:16:33.250Z,13.50
2023-04-02T03:19:31.423Z,14.18
2023-04-02T03:22:03.485Z,12.80
2023-04-02T03:24:54.082Z,11.25
2023-04-02T03:27:42.762Z,18.25
2023-04-02T03:30:34.721Z,11.63
2023-04-02T03:33:06.700Z,12.18
2023-04-02T03:35:54.905Z,12.07
2023-04-02T03:38:29.630Z,15.20
2023-04-02T03:40:59.540Z,11.90
2023-04-02T03:43:34.851Z,11.57
2023-04-02T03:46:16.674Z,13.13
2023-04-02T03:48:52.584Z,14.20
2023-04-02T03:51:32.494Z,14.02
2023-04-02T03:53:59.626Z,10.48
2023-04-02T03:56:39.814Z,12.07
2023-04-02T03:59:31.993Z,15.45
2023-04-02T04:02:19.065Z,10.45
2023-04-02T04:04:48.283Z,10.43
2023-04-02T04:07:30.285Z,12.55
2023-04-02T04:09:58.477Z,11.70
2023-04-02T04:12:34.783Z,11.52
2023-04-02T04:15:09.646Z,10.70
2023-04-02T04:18:02.720Z,10.10
2023-04-02T04:20:40.560Z,15.15
2023-04-02T04:23:19.996Z,24.52
2023-04-02T04:25:50.814Z,12.50
2023-04-02T04:28:29.470Z,16.20
2023-04-02T04:31:08.980Z,10.10
2023-04-02T04:33:43.647Z,10.15
2023-04-02T04:36:28.853Z,9.40
2023-04-02T04:39:00.374Z,11.07
2023-04-02T04:41:32.088Z,12.43
2023-04-02T04:44:23.806Z,10.32
2023-04-02T04:49:53.475Z,18.05
2023-04-02T04:52:49.580Z,11.35
2023-04-02T04:55:28.919Z,8.98
2023-04-02T04:58:05.023Z,10.50
2023-04-02T05:00:49.107Z,10.00
2023-04-02T05:03:28.248Z,9.18
2023-04-02T05:06:29.836Z,11.50
2023-04-02T05:09:00.476Z,8.55
2023-04-02T05:11:34.694Z,9.67
2023-04-02T05:14:07.864Z,12.15
2023-04-02T05:16:43.388Z,9.88
2023-04-02T05:19:53.250Z,8.50
2023-04-02T05:22:53.133Z,10.40
2023-04-02T05:25:35.043Z,9.23
2023-04-02T05:28:26.692Z,8.88
2023-04-02T05:31:03.094Z,4.88
2023-04-02T05:33:33.854Z,9.07
2023-04-02T05:36:09.395Z,5.97
2023-04-02T05:38:40.210Z,6.35
2023-04-02T05:41:38.127Z,7.93
2023-04-02T05:44:46.001Z,6.15
2023-04-02T05:47:19.095Z,7.93
2023-04-02T05:50:07.837Z,9.07
2023-04-02T05:52:40.217Z,7.45
2023-04-02T05:55:12.993Z,7.95
2023-04-02T05:58:01.274Z,8.77
2023-04-02T06:00:52.131Z,7.38
2023-04-02T06:03:30.926Z,8.93
2023-04-02T06:06:02.901Z,6.05
2023-04-02T06:08:43.433Z,6.97
2023-04-02T06:11:35.521Z,9.85
2023-04-02T06:14:04.900Z,8.68
2023-04-02T06:16:36.808Z,14.55
2023-04-02T06:19:11.117Z,10.00
2023-04-02T06:21:45.320Z,6.55
2023-04-02T06:24:16.346Z,10.90
2023-04-02T06:26:50.520Z,10.88
2023-04-02T06:29:31.007Z,10.15
2023-04-02T06:32:02.954Z,9.25
2023-04-02T06:34:31.893Z,6.90
2023-04-02T06:37:21.071Z,16.17
2023-04-02T06:39:48.180Z,9.00
2023-04-02T06:42:22.372Z,10.15
2023-04-02T06:44:49.850Z,13.48
2023-04-02T06:47:24.210Z,11.52
2023-04-02T06:50:18.826Z,10.15
2023-04-02T06:53:01.354Z,9.43
2023-04-02T06:55:39.739Z,10.07
2023-04-02T06:58:06.667Z,9.77
2023-04-02T07:00:40.956Z,14.95
2023-04-02T07:03:29.455Z,7.03
2023-04-02T07:05:57.072Z,11.68
2023-04-02T07:08:23.922Z,10.40
2023-04-02T07:10:50.855Z,10.30
2023-04-02T07:13:22.647Z,10.48
2023-04-02T07:15:52.548Z,10.05
2023-04-02T07:18:31.255Z,11.38
2023-04-02T07:20:58.823Z,13.40
2023-04-02T07:23:26.938Z,10.93
2023-04-02T07:25:55.690Z,15.00
2023-04-02T07:28:23.101Z,5.72
2023-04-02T07:30:51.559Z,9.43
2023-04-02T07:33:22.424Z,13.98
2023-04-02T07:35:50.821Z,9.85
2023-04-02T07:38:17.890Z,6.70
2023-04-02T07:40:45.347Z,7.00
2023-04-02T07:43:12.384Z,6.88
2023-04-02T07:45:39.215Z,5.72
2023-04-02T07:48:07.572Z,8.00
2023-04-02T07:50:35.391Z,8.93
2023-04-02T07:53:02.498Z,6.28
2023-04-02T07:55:30.006Z,5.47
2023-04-02T07:57:58.747Z,5.82
2023-04-02T08:00:27.134Z,7.22
2023-04-02T08:02:53.967Z,12.48
2023-04-02T08:05:20.953Z,8.27
2023-04-02T08:07:55.526Z,6.55
2023-04-02T08:10:23.293Z,7.75
2023-04-02T08:12:50.292Z,5.80
2023-04-02T08:15:17.509Z,7.45
2023-04-02T08:17:45.434Z,7.57
2023-04-02T08:20:21.803Z,6.18
2023-04-02T08:22:50.234Z,7.25
2023-04-02T08:25:17.585Z,6.97
2023-04-02T08:27:47.144Z,8.88
2023-04-02T08:30:14.377Z,6.32
2023-04-02T08:32:41.923Z,6.70
2023-04-02T08:35:11.054Z,10.80
2023-04-02T08:37:38.208Z,10.82
2023-04-02T08:40:07.431Z,7.25
2023-04-02T08:42:43.234Z,10.77
2023-04-02T08:45:32.392Z,9.45
2023-04-02T08:48:03.131Z,7.68
2023-04-02T08:50:39.561Z,8.35
2023-04-02T08:53:24.672Z,8.65
2023-04-02T08:56:03.951Z,6.28
2023-04-02T08:58:41.760Z,11.10
2023-04-02T09:01:26.692Z,13.45
2023-04-02T09:03:57.265Z,9.98
2023-04-02T09:06:24.556Z,7.77
2023-04-02T09:08:53.421Z,7.03
2023-04-02T09:11:34.522Z,10.60
2023-04-02T09:14:06.515Z,7.45
2023-04-02T09:16:50.965Z,6.90
2023-04-02T09:19:31.440Z,5.65
2023-04-02T09:22:22.439Z,6.88
2023-04-02T09:24:58.050Z,7.07
2023-04-02T09:27:27.982Z,3.80
2023-04-02T09:30:21.684Z,7.75
2023-04-02T09:32:57.086Z,6.68
2023-04-02T09:35:27.374Z,5.70
2023-04-02T09:38:22.052Z,4.18
2023-04-02T09:40:51.775Z,4.93
2023-04-02T09:43:21.983Z,4.65
2023-04-02T09:46:04.040Z,4.50
2023-04-02T09:49:01.161Z,2.78
2023-04-02T09:51:31.897Z,4.05
2023-04-02T09:54:04.926Z,6.93
2023-04-02T09:56:37.229Z,2.45
2023-04-02T09:59:08.067Z,5.43
2023-04-02T10:01:37.430Z,8.35
2023-04-02T10:04:06.273Z,4.18
2023-04-02T10:06:34.772Z,2.70
2023-04-02T10:09:29.825Z,3.65
2023-04-02T10:11:59.373Z,3.83
2023-04-02T10:14:31.470Z,4.60
2023-04-02T10:17:04.528Z,5.28
2023-04-02T10:19:45.047Z,5.80
2023-04-02T10:22:18.839Z,5.07
2023-04-02T10:24:48.771Z,4.68
2023-04-02T10:27:44.911Z,2.80
2023-04-02T10:30:26.415Z,7.07
2023-04-02T10:33:06.892Z,5.18
2023-04-02T10:36:06.957Z,5.07
2023-04-02T10:38:54.525Z,3.03
2023-04-02T10:41:46.200Z,4.72
2023-04-02T10:44:28.531Z,4.70
2023-04-02T10:47:03.988Z,5.30
2023-04-02T10:49:51.375Z,4.13
2023-04-02T10:52:29.686Z,3.60
2023-04-02T10:55:08.917Z,8.45
2023-04-02T10:57:40.700Z,3.55
2023-04-02T11:00:11.243Z,4.28
2023-04-02T11:03:03.463Z,3.55
2023-04-02T11:05:45.677Z,3.63
2023-04-02T11:08:26.787Z,4.40
2023-04-02T11:13:45.500Z,3.20
2023-04-02T11:16:16.516Z,3.95
2023-04-02T11:19:04.020Z,3.50
2023-04-02T11:21:57.142Z,2.75
2023-04-02T11:24:34.226Z,3.20
2023-04-02T11:27:10.344Z,3.88
2023-04-02T11:29:54.476Z,4.32
2023-04-02T11:32:25.547Z,3.35
2023-04-02T11:35:03.500Z,2.58
2023-04-02T11:37:33.225Z,3.65
2023-04-02T11:40:13.101Z,4.05
2023-04-02T11:42:46.525Z,3.53
2023-04-02T11:45:28.249Z,6.35
2023-04-02T11:48:13.565Z,3.58
2023-04-02T11:50:45.778Z,4.43
2023-04-02T11:53:13.500Z,3.55
2023-04-02T11:56:09.095Z,3.67
2023-04-02T11:59:03.207Z,3.47
2023-04-02T12:02:04.273Z,4.68
2023-04-02T12:05:07.960Z,3.25
2023-04-02T12:07:38.125Z,2.58
2023-04-02T12:10:32.642Z,1.95
2023-04-02T12:13:00.706Z,3.53
2023-04-02T12:15:49.047Z,4.05
2023-04-02T12:18:24.129Z,3.92
2023-04-02T12:20:56.693Z,3.92
2023-04-02T12:23:36.923Z,3.78
2023-04-02T12:26:24.641Z,6.85
2023-04-02T12:28:51.901Z,3.03
2023-04-02T12:31:22.319Z,3.50
2023-04-02T12:33:52.693Z,2.83
2023-04-02T12:36:22.873Z,4.28
2023-04-02T12:38:51.380Z,2.67
2023-04-02T12:41:32.257Z,3.33
2023-04-02T12:44:29.858Z,4.93
2023-04-02T12:46:58.308Z,3.42
2023-04-02T12:49:41.463Z,5.00
2023-04-02T12:52:13.071Z,3.53
2023-04-02T12:54:51.996Z,5.03
2023-04-02T12:57:29.281Z,2.95
2023-04-02T13:00:20.728Z,3.67
2023-04-02T13:03:09.133Z,4.20
2023-04-02T13:05:44.529Z,4.80
2023-04-02T13:08:30.820Z,3.85
2023-04-02T13:11:02.783Z,3.22
2023-04-02T13:13:34.655Z,2.67
2023-04-02T13:16:25.660Z,3.90
2023-04-02T13:19:08.673Z,4.05
2023-04-02T13:21:35.690Z,4.30
2023-04-02T13:24:03.694Z,3.35
2023-04-02T13:26:30.801Z,3.97
2023-04-02T13:29:11.288Z,2.45
2023-04-02T13:31:43.553Z,5.57
2023-04-02T13:34:31.073Z,2.42
2023-04-02T13:36:58.405Z,1.67
2023-04-02T13:39:25.533Z,5.47
2023-04-02T13:42:04.367Z,7.05
2023-04-02T13:44:34.248Z,3.50
2023-04-02T13:47:02.001Z,7.43
2023-04-02T13:49:29.656Z,2.63
2023-04-02T13:52:05.217Z,3.28
2023-04-02T13:54:46.037Z,4.95
2023-04-02T13:59:40.068Z,4.45
2023-04-02T14:02:15.769Z,2.67
2023-04-02T15:14:19.359Z,4.38
2023-04-02T15:16:48.890Z,3.38
2023-04-02T15:19:18.389Z,3.92
2023-04-02T15:22:01.073Z,7.68
2023-04-02T15:25:04.436Z,5.10
2023-04-02T15:28:04.789Z,4.63
2023-04-02T15:30:42.393Z,3.58
2023-04-02T15:33:27.975Z,6.20
2023-04-02T15:36:21.417Z,5.40
2023-04-02T15:38:55.912Z,4.28
2023-04-02T15:45:01.454Z,6.55
2023-04-02T15:47:36.948Z,3.85
2023-04-02T15:50:30.382Z,4.47
2023-04-02T15:53:27.031Z,5.05
2023-04-02T15:56:38.155Z,5.90
2023-04-02T15:59:42.847Z,4.40
2023-04-02T16:02:46.570Z,3.40
2023-04-02T16:05:38.370Z,6.20
2023-04-02T16:08:43.210Z,1.98
2023-04-02T16:11:12.507Z,4.07
2023-04-02T16:13:41.576Z,3.75
2023-04-02T16:16:15.791Z,3.55
2023-04-02T16:19:04.098Z,2.38
2023-04-02T16:21:40.085Z,5.88
2023-04-02T16:24:12.184Z,3.92
2023-04-02T16:26:50.406Z,4.72
2023-04-02T16:29:55.375Z,4.65
2023-04-02T16:33:00.150Z,6.95
2023-04-02T16:35:43.001Z,7.45
2023-04-02T16:38:48.859Z,7.97
2023-04-02T16:41:42.011Z,6.47
2023-04-02T16:44:25.694Z,3.50
2023-04-02T16:47:19.566Z,7.78
2023-04-02T16:50:32.303Z,5.18
2023-04-02T16:53:54.520Z,6.60
2023-04-02T16:56:46.571Z,2.55
2023-04-02T16:59:43.032Z,2.17
2023-04-02T17:02:28.553Z,5.32
2023-04-02T17:05:34.578Z,1.45
2023-04-02T17:08:21.786Z,6.25
2023-04-02T17:11:05.630Z,5.38
2023-04-02T17:13:44.369Z,5.35
2023-04-02T17:16:18.439Z,5.38
2023-04-02T17:18:50.010Z,3.47
2023-04-02T17:21:24.882Z,4.50
2023-04-02T17:23:58.716Z,6.53
2023-04-02T17:26:38.427Z,5.68
2023-04-02T17:29:15.318Z,3.80
2023-04-02T17:31:44.195Z,4.85
2023-04-02T17:34:17.278Z,6.63
2023-04-02T17:37:23.043Z,5.72
2023-04-02T17:40:26.603Z,3.53
2023-04-02T17:43:19.032Z,7.30
2023-04-02T17:45:55.626Z,4.75
2023-04-02T17:48:50.572Z,9.52
2023-04-02T17:51:33.270Z,5.57
2023-04-02T17:54:32.110Z,4.85
2023-04-02T17:57:35.251Z,5.07
2023-04-02T18:00:35.507Z,3.65
2023-04-02T18:03:21.060Z,4.47
2023-04-02T18:06:20.458Z,2.70
2023-04-02T18:09:04.422Z,1.88
2023-04-02T18:11:53.035Z,4.05
2023-04-02T18:14:45.245Z,5.88
2023-04-02T18:17:41.842Z,27.40
2023-04-02T18:20:26.775Z,26.80
2023-04-02T18:23:06.688Z,98.30
2023-04-02T18:25:52.313Z,62.22
2023-04-02T18:28:36.651Z,16.92
2023-04-02T18:31:18.417Z,6.18
2023-04-02T18:34:22.491Z,4.30
2023-04-02T18:37:21.063Z,7.15
2023-04-02T18:40:10.817Z,4.88
2023-04-02T18:43:08.074Z,7.68
2023-04-02T18:45:51.970Z,10.32
2023-04-02T18:48:49.566Z,13.65
2023-04-02T18:51:21.968Z,7.65
2023-04-02T18:54:20.051Z,9.38
2023-04-02T18:56:48.398Z,13.68
2023-04-02T18:59:28.720Z,14.07
2023-04-02T19:01:59.443Z,36.38
2023-04-02T19:04:30.847Z,53.80
2023-04-02T19:07:14.301Z,70.15
2023-04-02T19:09:44.379Z,39.20
2023-04-02T19:12:21.151Z,22.55
2023-04-02T19:14:52.018Z,17.95
2023-04-02T19:20:24.852Z,26.38
2023-04-02T19:23:14.233Z,37.22
2023-04-02T19:26:07.188Z,82.13
2023-04-02T19:28:46.451Z,209.60
2023-04-02T19:31:28.398Z,130.65
2023-04-02T19:34:07.840Z,100.40
2023-04-02T19:36:51.446Z,87.78
2023-04-02T19:39:36.682Z,73.53
2023-04-02T19:42:21.794Z,63.80
2023-04-02T19:44:52.101Z,69.43
2023-04-02T19:47:20.353Z,48.10
2023-04-02T19:49:50.533Z,26.30
2023-04-02T19:52:17.669Z,13.40
2023-04-02T19:54:44.575Z,13.38
2023-04-02T19:57:14.834Z,9.75
2023-04-02T19:59:41.974Z,5.60
2023-04-02T20:02:11.192Z,9.18
2023-04-02T20:04:38.243Z,8.25
2023-04-02T20:07:05.740Z,9.50
2023-04-02T20:09:32.953Z,7.20
2023-04-02T20:11:59.855Z,8.43
2023-04-02T20:14:27.018Z,8.20
2023-04-02T20:16:53.972Z,8.65
2023-04-02T20:19:21.334Z,10.75
2023-04-02T20:21:48.251Z,4.53
2023-04-02T20:24:15.260Z,15.00
2023-04-02T20:26:42.192Z,8.10
2023-04-02T20:29:09.206Z,10.88
2023-04-02T20:31:36.488Z,11.00
2023-04-02T20:34:05.649Z,11.23
2023-04-02T20:36:33.261Z,11.43
2023-04-02T20:39:00.232Z,10.70
2023-04-02T20:41:27.553Z,7.75
2023-04-02T20:43:54.448Z,5.15
2023-04-02T20:46:23.060Z,4.13
2023-04-02T20:48:50.353Z,6.88
2023-04-02T20:51:17.567Z,7.15
2023-04-02T20:53:44.707Z,4.13
2023-04-02T20:56:14.488Z,7.72
2023-04-02T20:58:42.527Z,5.13
2023-04-02T21:01:16.237Z,3.63
2023-04-02T21:03:43.916Z,3.58
2023-04-02T21:06:19.930Z,3.53
2023-04-02T21:08:47.582Z,3.45
2023-04-02T21:11:15.488Z,3.03
2023-04-02T21:13:44.399Z,5.38
2023-04-02T21:16:17.575Z,5.38
2023-04-02T21:18:44.905Z,5.07
2023-04-02T21:21:13.858Z,8.13
2023-04-02T21:23:42.013Z,4.57
2023-04-02T21:26:15.548Z,4.57
2023-04-02T21:28:43.895Z,5.90
2023-04-02T21:31:17.075Z,4.25
2023-04-02T21:33:47.031Z,3.83
2023-04-02T21:36:16.753Z,4.38
2023-04-02T21:38:49.631Z,5.30
2023-04-02T21:41:19.755Z,7.53
2023-04-02T21:43:48.374Z,9.05
2023-04-02T21:46:21.556Z,7.15
2023-04-02T21:48:49.564Z,7.95
2023-04-02T21:51:22.425Z,7.75
2023-04-02T21:53:49.637Z,4.35
2023-04-02T21:56:21.364Z,8.15
2023-04-02T21:58:48.442Z,9.02
2023-04-02T22:01:26.754Z,10.25
2023-04-02T22:03:58.949Z,6.75
2023-04-02T22:06:27.765Z,5.85
2023-04-02T22:08:57.466Z,6.05
2023-04-02T22:11:27.723Z,8.68
2023-04-02T22:13:55.620Z,8.10
2023-04-02T22:16:24.386Z,8.60
2023-04-02T22:18:52.758Z,4.60
2023-04-02T22:21:23.272Z,6.35
2023-04-02T22:23:50.529Z,6.80
2023-04-02T22:26:18.688Z,6.22
2023-04-02T22:28:46.781Z,14.35
2023-04-02T22:31:20.510Z,6.07
2023-04-02T22:33:48.364Z,9.65
2023-04-02T22:36:16.578Z,7.03
2023-04-02T22:38:44.013Z,8.43
2023-04-02T22:41:19.409Z,8.73
2023-04-02T22:43:46.714Z,7.63
2023-04-02T22:46:16.443Z,6.97
2023-04-02T22:48:44.340Z,8.65
2023-04-02T22:51:12.972Z,3.47
2023-04-02T22:53:40.811Z,6.97
2023-04-02T22:56:15.046Z,6.55
2023-04-02T22:58:42.543Z,5.47
2023-04-02T23:01:11.943Z,6.25
2023-04-02T23:03:39.284Z,4.90
2023-04-02T23:06:09.813Z,4.05
2023-04-02T23:08:38.128Z,5.28
2023-04-02T23:11:08.045Z,4.93
2023-04-02T23:13:36.040Z,7.07
2023-04-02T23:16:05.606Z,7.40
2023-04-02T23:18:34.274Z,8.35
2023-04-02T23:21:01.289Z,9.82
2023-04-02T23:23:28.510Z,5.82
2023-04-02T23:26:07.562Z,9.07
2023-04-02T23:28:36.006Z,3.00
2023-04-02T23:31:04.426Z,5.25
2023-04-02T23:33:31.764Z,3.92
2023-04-02T23:35:58.988Z,3.95
2023-04-02T23:38:26.736Z,4.68
2023-04-02T23:40:54.082Z,4.70
2023-04-02T23:43:21.211Z,2.70
2023-04-02T23:45:49.709Z,7.30
2023-04-02T23:48:17.367Z,7.18
2023-04-02T23:50:45.517Z,5.50
2023-04-02T23:53:12.867Z,18.63
2023-04-02T23:55:40.550Z,7.57
2023-04-02T23:58:07.602Z,11.93
